BIAR

Akureyri Airport

Akureyri, Iceland

BIAR 230500Z 00000KT 9999 BKN038 OVC043 06/05 Q0996

Observed Flight Rules
Oct-23 @ 05:00 UTC (an hour ago)
 
Visual Flight Rules
Wind Visibility Clouds
Calm 10,000+ meters
  • Broken at 3,800' AGL
  • Overcast at 4,300' AGL
Temperatures Readings
Current 6°C / 43°F
Dewpoint 5°C / 41°F
Humidity 93%
Altimeter 29.41" Hg
Pressure 996 hPa
Elevation 27
Observed Flight Rules
Oct-23 @ 05:00 UTC
(an hour ago)
 
VFR
Wind Visibility
Calm 10,000+ meters
Clouds
  • Broken at 3,800' AGL
  • Overcast at 4,300' AGL
Temperature Dewpoint
6°C / 43°F 5°C / 41°F
Humidity Altimeter Pressure
93% 29.41" Hg 996 hPa